createdAt,value
2023-03-02T00:02:29.931Z,6.47
2023-03-02T00:07:34.757Z,6.30
2023-03-02T00:12:36.199Z,8.00
2023-03-02T00:17:37.794Z,7.32
2023-03-02T00:22:40.912Z,7.18
2023-03-02T00:27:42.328Z,7.75
2023-03-02T00:32:45.603Z,7.55
2023-03-02T00:37:47.014Z,7.93
2023-03-02T00:42:48.481Z,7.57
2023-03-02T00:47:49.830Z,8.07
2023-03-02T00:52:51.373Z,7.85
2023-03-02T00:57:56.694Z,7.47
2023-03-02T01:02:58.423Z,7.82
2023-03-02T01:07:59.873Z,7.57
2023-03-02T01:13:01.445Z,7.25
2023-03-02T01:18:02.986Z,7.65
2023-03-02T01:23:04.490Z,7.35
2023-03-02T01:28:05.886Z,8.27
2023-03-02T01:33:07.240Z,8.15
2023-03-02T01:38:08.600Z,7.53
2023-03-02T01:43:13.949Z,6.85
2023-03-02T01:48:20.093Z,7.18
2023-03-02T01:53:25.061Z,7.25
2023-03-02T01:58:28.470Z,6.82
2023-03-02T02:03:30.685Z,6.90
2023-03-02T02:08:32.198Z,7.63
2023-03-02T02:13:33.838Z,6.78
2023-03-02T02:18:39.107Z,6.97
2023-03-02T02:24:16.322Z,7.05
2023-03-02T02:29:30.781Z,7.13
2023-03-02T02:34:41.069Z,6.95
2023-03-02T02:39:47.948Z,6.03
2023-03-02T02:44:50.132Z,7.33
2023-03-02T02:49:56.518Z,7.15
2023-03-02T02:54:59.141Z,5.95
2023-03-02T03:00:01.195Z,6.47
2023-03-02T03:05:03.042Z,7.22
2023-03-02T03:10:14.126Z,6.60
2023-03-02T03:15:16.405Z,6.05
2023-03-02T03:20:19.356Z,6.25
2023-03-02T03:25:26.636Z,6.13
2023-03-02T03:30:27.991Z,6.03
2023-03-02T03:35:29.413Z,5.95
2023-03-02T03:40:34.145Z,6.30
2023-03-02T03:45:35.876Z,5.40
2023-03-02T03:50:37.272Z,6.15
2023-03-02T03:55:38.658Z,6.70
2023-03-02T04:00:40.119Z,6.05
2023-03-02T04:05:42.246Z,7.15
2023-03-02T04:10:43.822Z,6.50
2023-03-02T04:15:47.035Z,6.63
2023-03-02T04:20:48.565Z,5.57
2023-03-02T04:25:49.929Z,5.82
2023-03-02T04:30:51.583Z,6.53
2023-03-02T04:35:54.522Z,5.88
2023-03-02T04:40:57.421Z,6.65
2023-03-02T04:45:59.222Z,5.55
2023-03-02T04:51:00.594Z,5.90
2023-03-02T04:56:01.926Z,6.43
2023-03-02T05:01:03.503Z,5.95
2023-03-02T05:06:05.108Z,6.35
2023-03-02T05:11:07.811Z,5.95
2023-03-02T05:16:09.265Z,6.32
2023-03-02T05:21:11.153Z,5.10
2023-03-02T05:26:13.606Z,5.45
2023-03-02T05:31:21.271Z,6.63
2023-03-02T05:36:23.416Z,5.53
2023-03-02T05:41:24.876Z,6.10
2023-03-02T05:46:26.396Z,5.57
2023-03-02T05:51:27.764Z,5.65
2023-03-02T05:56:29.138Z,5.57
2023-03-02T06:01:30.680Z,5.03
2023-03-02T06:06:34.004Z,5.00
2023-03-02T06:11:35.460Z,5.72
2023-03-02T06:16:37.227Z,5.32
2023-03-02T06:21:38.602Z,5.47
2023-03-02T06:26:40.039Z,5.38
2023-03-02T06:31:41.450Z,5.43
2023-03-02T06:36:42.841Z,4.97
2023-03-02T06:41:45.446Z,5.13
2023-03-02T06:46:46.794Z,5.53
2023-03-02T06:51:48.149Z,4.93
2023-03-02T06:56:49.476Z,5.93
2023-03-02T07:01:51.654Z,5.95
2023-03-02T07:06:52.974Z,5.10
2023-03-02T07:11:54.293Z,5.90
2023-03-02T07:16:57.420Z,5.82
2023-03-02T07:21:58.876Z,5.30
2023-03-02T07:27:00.307Z,5.10
2023-03-02T07:32:01.848Z,5.45
2023-03-02T07:37:03.360Z,6.32
2023-03-02T07:42:06.937Z,5.82
2023-03-02T07:47:08.321Z,6.35
2023-03-02T07:52:09.732Z,6.20
2023-03-02T07:57:11.160Z,5.75
2023-03-02T08:02:14.937Z,6.63
2023-03-02T08:07:16.389Z,5.32
2023-03-02T08:12:17.707Z,5.40
2023-03-02T08:17:19.036Z,6.32
2023-03-02T08:22:20.457Z,6.22
2023-03-02T08:27:22.114Z,6.80
2023-03-02T08:32:23.502Z,7.28
2023-03-02T08:37:25.043Z,6.82
2023-03-02T08:42:26.592Z,6.03
2023-03-02T08:47:28.478Z,6.80
2023-03-02T08:52:29.982Z,6.15
2023-03-02T08:57:31.349Z,6.07
2023-03-02T09:02:32.692Z,6.22
2023-03-02T09:07:34.138Z,6.35
2023-03-02T09:12:35.518Z,6.22
2023-03-02T09:17:36.939Z,5.88
2023-03-02T09:22:38.376Z,6.72
2023-03-02T09:27:39.736Z,6.78
2023-03-02T09:32:41.462Z,8.00
2023-03-02T09:37:44.508Z,7.15
2023-03-02T09:42:55.093Z,6.78
2023-03-02T09:48:13.429Z,7.15
2023-03-02T09:53:28.500Z,6.05
2023-03-02T09:58:37.552Z,7.03
2023-03-02T10:03:50.243Z,6.57
2023-03-02T10:08:51.703Z,6.85
2023-03-02T10:14:05.891Z,6.80
2023-03-02T10:19:29.539Z,7.07
2023-03-02T10:24:50.973Z,8.23
2023-03-02T10:30:06.450Z,6.13
2023-03-02T10:35:21.229Z,6.65
2023-03-02T10:40:47.218Z,6.53
2023-03-02T10:45:59.536Z,6.20
2023-03-02T10:51:00.877Z,6.45
2023-03-02T10:56:05.441Z,6.53
2023-03-02T11:01:16.918Z,7.40
2023-03-02T11:06:20.663Z,5.78
2023-03-02T11:11:24.104Z,6.93
2023-03-02T11:16:31.178Z,7.05
2023-03-02T11:21:44.054Z,6.10
2023-03-02T11:26:52.052Z,5.78
2023-03-02T11:31:58.906Z,6.45
2023-03-02T11:37:16.967Z,6.40
2023-03-02T11:42:26.674Z,6.70
2023-03-02T11:47:31.541Z,5.20
2023-03-02T11:52:38.949Z,5.75
2023-03-02T11:57:48.540Z,5.70
2023-03-02T12:03:03.392Z,5.57
2023-03-02T12:08:08.535Z,5.63
2023-03-02T12:13:24.681Z,6.47
2023-03-02T12:18:34.647Z,6.40
2023-03-02T12:23:41.990Z,6.68
2023-03-02T12:28:43.321Z,5.13
2023-03-02T12:33:49.829Z,6.10
2023-03-02T12:39:26.108Z,5.70
2023-03-02T12:44:55.342Z,6.22
2023-03-02T12:50:00.544Z,6.40
2023-03-02T12:55:18.708Z,5.00
2023-03-02T13:00:23.101Z,5.22
2023-03-02T13:05:28.002Z,5.22
2023-03-02T13:10:41.968Z,5.10
2023-03-02T13:15:55.455Z,4.90
2023-03-02T13:20:57.008Z,5.32
2023-03-02T13:26:00.916Z,4.65
2023-03-02T13:31:20.976Z,5.95
2023-03-02T13:36:34.447Z,5.57
2023-03-02T13:41:37.338Z,6.80
2023-03-02T13:46:41.708Z,5.20
2023-03-02T13:51:47.245Z,5.50
2023-03-02T13:56:51.040Z,6.13
2023-03-02T14:01:52.610Z,5.40
2023-03-02T14:06:54.895Z,5.93
2023-03-02T14:11:57.697Z,6.25
2023-03-02T14:16:59.104Z,5.38
2023-03-02T14:22:00.463Z,5.70
2023-03-02T14:27:02.225Z,6.20
2023-03-02T14:32:04.606Z,7.07
2023-03-02T14:37:11.280Z,6.47
2023-03-02T14:42:15.698Z,5.53
2023-03-02T14:47:19.353Z,6.32
2023-03-02T14:52:31.234Z,6.90
2023-03-02T14:57:36.163Z,6.68
2023-03-02T15:02:37.700Z,6.13
2023-03-02T15:07:39.295Z,6.07
2023-03-02T15:12:40.630Z,6.03
2023-03-02T15:17:42.054Z,6.85
2023-03-02T15:22:43.740Z,6.45
2023-03-02T15:27:45.122Z,6.65
2023-03-02T15:32:46.474Z,5.78
2023-03-02T15:37:47.870Z,7.15
2023-03-02T15:42:49.283Z,5.50
2023-03-02T15:47:50.603Z,5.18
2023-03-02T15:52:51.934Z,5.25
2023-03-02T15:57:53.562Z,4.10
2023-03-02T16:02:54.921Z,4.47
2023-03-02T16:07:56.270Z,4.22
2023-03-02T16:13:05.085Z,4.03
2023-03-02T16:18:10.660Z,4.97
2023-03-02T16:23:12.065Z,3.22
2023-03-02T16:28:14.790Z,3.40
2023-03-02T16:33:17.820Z,3.90
2023-03-02T16:38:19.169Z,3.35
2023-03-02T16:43:22.355Z,3.10
2023-03-02T16:48:24.269Z,2.53
2023-03-02T16:53:25.615Z,3.50
2023-03-02T16:58:27.168Z,4.18
2023-03-02T17:03:28.507Z,4.70
2023-03-02T17:08:29.903Z,3.40
2023-03-02T17:13:31.493Z,4.80
2023-03-02T17:18:33.518Z,5.28
2023-03-02T17:23:36.693Z,3.08
2023-03-02T17:28:39.164Z,2.58
2023-03-02T17:33:40.604Z,3.33
2023-03-02T17:38:42.044Z,2.85
2023-03-02T17:43:43.448Z,2.97
2023-03-02T17:48:47.716Z,2.33
2023-03-02T17:53:51.021Z,2.80
2023-03-02T17:58:58.125Z,2.88
2023-03-02T18:03:59.740Z,2.65
2023-03-02T18:09:01.150Z,2.70
2023-03-02T18:14:02.476Z,2.50
2023-03-02T18:19:03.994Z,2.40
2023-03-02T18:24:05.927Z,3.40
2023-03-02T18:29:07.291Z,3.45
2023-03-02T18:34:08.665Z,3.40
2023-03-02T18:39:10.019Z,2.67
2023-03-02T18:44:11.362Z,3.83
2023-03-02T18:49:12.690Z,3.00
2023-03-02T18:54:14.066Z,3.50
2023-03-02T18:59:17.597Z,3.67
2023-03-02T19:04:20.534Z,2.83
2023-03-02T19:09:22.879Z,3.38
2023-03-02T19:14:24.311Z,2.70
2023-03-02T19:19:25.675Z,3.08
2023-03-02T19:24:27.589Z,2.63
2023-03-02T19:29:29.023Z,2.97
2023-03-02T19:34:30.412Z,3.00
2023-03-02T19:39:31.981Z,2.85
2023-03-02T19:44:33.974Z,4.53
2023-03-02T19:49:36.516Z,3.75
2023-03-02T19:54:37.878Z,2.95
2023-03-02T19:59:40.992Z,2.53
2023-03-02T20:04:43.236Z,4.82
2023-03-02T20:09:45.740Z,3.08
2023-03-02T20:14:49.258Z,2.97
2023-03-02T20:19:50.891Z,3.20
2023-03-02T20:24:52.380Z,3.53
2023-03-02T20:29:53.775Z,3.45
2023-03-02T20:34:55.595Z,3.78
2023-03-02T20:39:57.565Z,3.78
2023-03-02T20:44:59.321Z,4.93
2023-03-02T20:50:01.723Z,4.22
2023-03-02T20:55:04.648Z,4.57
2023-03-02T21:00:14.239Z,4.47
2023-03-02T21:05:17.826Z,4.95
2023-03-02T21:10:26.935Z,4.28
2023-03-02T21:15:28.452Z,5.45
2023-03-02T21:20:32.229Z,4.70
2023-03-02T21:25:33.743Z,5.13
2023-03-02T21:30:35.592Z,5.28
2023-03-02T21:35:37.036Z,5.10
2023-03-02T21:40:43.028Z,5.57
2023-03-02T21:45:44.473Z,9.23
2023-03-02T21:50:46.029Z,6.25
2023-03-02T21:55:47.790Z,5.18
2023-03-02T22:00:49.283Z,5.47
2023-03-02T22:05:50.925Z,5.25
2023-03-02T22:10:52.655Z,5.43
2023-03-02T22:16:13.180Z,5.18
2023-03-02T22:21:34.646Z,6.13
2023-03-02T22:26:47.910Z,6.07
2023-03-02T22:31:51.059Z,6.82
2023-03-02T22:36:58.796Z,6.60
2023-03-02T22:47:19.064Z,7.50
2023-03-02T22:52:23.977Z,6.90
2023-03-02T22:57:35.100Z,6.82
2023-03-02T23:02:41.694Z,7.00
2023-03-02T23:07:43.017Z,6.97
2023-03-02T23:12:44.970Z,8.23
2023-03-02T23:17:46.700Z,7.80
2023-03-02T23:22:49.907Z,7.75
2023-03-02T23:27:51.841Z,7.53
2023-03-02T23:32:53.326Z,7.55
2023-03-02T23:37:54.719Z,8.55
2023-03-02T23:42:56.064Z,7.32
2023-03-02T23:47:58.967Z,7.85
2023-03-02T23:53:00.343Z,8.73
2023-03-02T23:58:01.670Z,9.45
